In Rescue
 
Open Full Screen Window  High Contrast Mode
Wind Gusting 00 knots
06
October 25, 2021 3:46 PM CDT
Weather Information
Wind Direction
  100 °
Wind Speed
  06 kt (7 mph)
Wind Gust
  00 kt (0 mph)
Altimeter
30.12 in
Visibility
7 SM
Temperature
11° C
52° F
Dewpoint
-02° C
28° F
Humidity
41%
1hr Rain Fall
00.00 in.
24hr Rain Fall
00.00 in.
Sky Condition
Clear
VFR

METAR KGYL 252046Z AUTO 10006KT 7SM CLR 11/M02 A3012 RMK AO2 T01101018

FAA Disclaimer: The data displayed is for advisory purposes only and is not to be used for flight planning or operations.